createdAt,value
2019-02-19T00:00:42.392Z,73.56
2019-02-19T00:03:12.043Z,73.60
2019-02-19T00:05:41.680Z,73.11
2019-02-19T00:08:10.953Z,72.84
2019-02-19T00:10:40.559Z,73.01
2019-02-19T00:13:09.858Z,73.21
2019-02-19T00:15:39.117Z,73.19
2019-02-19T00:18:11.220Z,73.31
2019-02-19T00:20:40.457Z,73.27
2019-02-19T00:23:09.720Z,73.52
2019-02-19T00:25:38.959Z,73.55
2019-02-19T00:28:09.073Z,73.81
2019-02-19T00:30:38.303Z,73.72
2019-02-19T00:33:07.577Z,73.61
2019-02-19T00:35:36.851Z,73.45
2019-02-19T00:38:06.846Z,73.24
2019-02-19T00:40:36.293Z,73.43
2019-02-19T00:43:05.562Z,73.54
2019-02-19T00:45:35.829Z,73.53
2019-02-19T00:48:05.148Z,73.51
2019-02-19T00:50:34.489Z,73.58
2019-02-19T00:53:04.294Z,74.42
2019-02-19T00:55:33.555Z,74.68
2019-02-19T00:58:05.527Z,74.75
2019-02-19T01:00:34.804Z,75.08
2019-02-19T01:03:04.378Z,75.36
2019-02-19T01:05:35.104Z,75.55
2019-02-19T01:08:07.187Z,76.10
2019-02-19T01:10:37.230Z,75.79
2019-02-19T01:13:06.787Z,75.80
2019-02-19T01:15:37.063Z,75.95
2019-02-19T01:18:07.122Z,76.07
2019-02-19T01:20:36.352Z,76.13
2019-02-19T01:23:07.843Z,76.22
2019-02-19T01:25:37.759Z,76.23
2019-02-19T01:28:08.239Z,76.06
2019-02-19T01:30:37.470Z,76.05
2019-02-19T01:33:09.087Z,75.86
2019-02-19T01:35:38.315Z,75.76
2019-02-19T01:38:07.737Z,75.71
2019-02-19T01:40:37.217Z,75.70
2019-02-19T01:43:07.196Z,75.95
2019-02-19T01:45:39.109Z,76.03
2019-02-19T01:48:08.358Z,76.11
2019-02-19T01:50:37.601Z,76.23
2019-02-19T01:53:07.177Z,76.57
2019-02-19T01:55:38.061Z,77.08
2019-02-19T01:58:09.761Z,77.91
2019-02-19T02:00:39.030Z,77.95
2019-02-19T02:03:08.530Z,77.78
2019-02-19T02:05:39.570Z,77.31
2019-02-19T02:08:10.242Z,76.90
2019-02-19T02:10:39.911Z,76.69
2019-02-19T02:13:10.073Z,76.50
2019-02-19T02:15:42.708Z,76.18
2019-02-19T02:18:10.313Z,76.20
2019-02-19T02:20:43.559Z,76.24
2019-02-19T02:23:14.459Z,76.15
2019-02-19T02:25:43.724Z,76.41
2019-02-19T02:28:12.962Z,76.44
2019-02-19T02:30:44.725Z,76.54
2019-02-19T02:33:15.485Z,76.42
2019-02-19T02:35:45.338Z,76.41
2019-02-19T02:38:14.604Z,76.41
2019-02-19T02:40:43.903Z,76.14
2019-02-19T02:43:13.312Z,76.03
2019-02-19T02:45:52.423Z,76.14
2019-02-19T02:48:16.596Z,76.36
2019-02-19T02:50:47.570Z,76.87
2019-02-19T02:53:16.849Z,77.00
2019-02-19T02:55:49.849Z,77.01
2019-02-19T02:58:19.109Z,76.81
2019-02-19T03:00:48.392Z,76.71
2019-02-19T03:03:18.409Z,76.66
2019-02-19T03:06:24.718Z,76.53
2019-02-19T03:08:54.003Z,76.42
2019-02-19T03:11:23.247Z,76.35
2019-02-19T03:13:53.557Z,76.42
2019-02-19T03:16:24.906Z,76.50
2019-02-19T03:18:54.132Z,76.49
2019-02-19T03:21:26.344Z,76.25
2019-02-19T03:23:56.333Z,76.00
2019-02-19T03:26:28.602Z,76.06
2019-02-19T03:28:57.835Z,76.09
2019-02-19T03:31:27.169Z,76.06
2019-02-19T03:33:57.641Z,76.12
2019-02-19T03:36:26.877Z,76.00
2019-02-19T03:38:55.953Z,75.98
2019-02-19T03:41:25.184Z,76.11
2019-02-19T03:43:56.118Z,76.27
2019-02-19T03:46:27.763Z,76.64
2019-02-19T03:48:58.790Z,77.00
2019-02-19T03:51:29.589Z,77.13
2019-02-19T03:53:59.175Z,76.67
2019-02-19T03:56:28.443Z,76.87
2019-02-19T03:58:57.695Z,78.13
2019-02-19T04:01:28.527Z,79.49
2019-02-19T04:04:00.784Z,79.92
2019-02-19T04:06:30.063Z,80.93
2019-02-19T04:08:59.298Z,81.58
2019-02-19T04:11:30.680Z,82.05
2019-02-19T04:14:00.781Z,82.25
2019-02-19T04:16:30.911Z,82.09
2019-02-19T04:19:00.152Z,81.35
2019-02-19T04:21:33.397Z,80.66
2019-02-19T04:24:06.184Z,80.04
2019-02-19T04:26:36.559Z,79.72
2019-02-19T04:29:07.426Z,79.52
2019-02-19T04:31:36.993Z,79.08
2019-02-19T04:34:06.661Z,78.54
2019-02-19T04:36:36.686Z,78.55
2019-02-19T04:39:17.408Z,78.54
2019-02-19T04:41:48.730Z,78.34
2019-02-19T04:44:21.090Z,78.66
2019-02-19T04:46:50.582Z,79.06
2019-02-19T04:49:20.418Z,79.09
2019-02-19T04:51:51.427Z,79.16
2019-02-19T04:54:31.799Z,79.34
2019-02-19T04:57:01.321Z,79.48
2019-02-19T04:59:34.769Z,79.26
2019-02-19T05:02:05.863Z,79.05
2019-02-19T05:04:36.869Z,78.87
2019-02-19T05:07:10.318Z,78.60
2019-02-19T05:09:45.950Z,78.40
2019-02-19T05:12:16.671Z,78.43
2019-02-19T05:14:46.152Z,78.79
2019-02-19T05:17:16.396Z,78.96
2019-02-19T05:19:51.956Z,79.18
2019-02-19T05:22:32.998Z,79.57
2019-02-19T05:25:02.075Z,79.64
2019-02-19T05:27:32.524Z,79.29
2019-02-19T05:30:03.043Z,78.96
2019-02-19T05:32:32.647Z,79.05
2019-02-19T05:35:02.900Z,78.84
2019-02-19T05:37:32.207Z,79.20
2019-02-19T05:40:02.604Z,78.94
2019-02-19T05:42:31.906Z,78.41
2019-02-19T05:45:01.165Z,78.03
2019-02-19T05:47:32.427Z,77.73
2019-02-19T05:50:01.490Z,77.47
2019-02-19T05:52:32.893Z,77.60
2019-02-19T05:55:09.708Z,77.88
2019-02-19T05:57:41.782Z,77.43
2019-02-19T06:00:15.574Z,77.25
2019-02-19T06:02:47.089Z,77.11
2019-02-19T06:05:16.322Z,77.10
2019-02-19T06:07:45.677Z,77.31
2019-02-19T06:10:15.394Z,77.40
2019-02-19T06:12:45.404Z,77.58
2019-02-19T06:15:15.755Z,77.62
2019-02-19T06:17:47.151Z,77.60
2019-02-19T06:20:17.144Z,77.61
2019-02-19T06:22:52.643Z,77.74
2019-02-19T06:25:22.695Z,77.79
2019-02-19T06:27:51.993Z,77.47
2019-02-19T06:30:22.446Z,77.24
2019-02-19T06:32:51.711Z,77.37
2019-02-19T06:35:24.474Z,77.33
2019-02-19T06:37:54.167Z,77.25
2019-02-19T06:40:25.994Z,77.23
2019-02-19T06:42:59.920Z,77.13
2019-02-19T06:45:29.203Z,76.96
2019-02-19T06:47:58.972Z,77.16
2019-02-19T06:50:28.205Z,77.43
2019-02-19T06:52:58.369Z,77.58
2019-02-19T06:55:27.950Z,77.28
2019-02-19T06:57:58.293Z,76.75
2019-02-19T07:00:27.382Z,76.67
2019-02-19T07:03:15.890Z,76.54
2019-02-19T07:05:49.236Z,75.78
2019-02-19T07:08:19.343Z,75.81
2019-02-19T07:10:51.448Z,75.43
2019-02-19T07:13:20.909Z,74.63
2019-02-19T07:15:52.130Z,73.71
2019-02-19T07:18:23.485Z,72.98
2019-02-19T07:20:53.000Z,72.07
2019-02-19T07:23:22.323Z,71.79
2019-02-19T07:25:55.774Z,71.85
2019-02-19T07:28:25.293Z,71.54
2019-02-19T07:30:55.735Z,71.79
2019-02-19T07:33:28.944Z,71.48
2019-02-19T07:36:00.677Z,70.90
2019-02-19T07:38:34.472Z,70.00
2019-02-19T07:41:06.960Z,66.73
2019-02-19T07:43:38.860Z,61.53
2019-02-19T07:46:10.869Z,56.88
2019-02-19T07:48:47.670Z,53.50
2019-02-19T07:51:21.185Z,50.42
2019-02-19T07:53:52.562Z,51.54
2019-02-19T07:56:24.669Z,53.15
2019-02-19T07:58:54.329Z,53.49
2019-02-19T08:01:23.854Z,53.51
2019-02-19T08:03:56.630Z,52.23
2019-02-19T08:06:28.095Z,52.15
2019-02-19T08:08:58.223Z,52.28
2019-02-19T08:11:27.432Z,51.17
2019-02-19T08:13:57.657Z,49.25
2019-02-19T08:16:29.317Z,49.37
2019-02-19T08:19:00.448Z,49.73
2019-02-19T08:21:30.019Z,49.18
2019-02-19T08:24:03.757Z,48.14
2019-02-19T08:26:34.656Z,46.26
2019-02-19T08:29:13.919Z,45.06
2019-02-19T08:31:42.335Z,45.84
2019-02-19T08:34:12.687Z,46.57
2019-02-19T08:36:43.389Z,46.91
2019-02-19T08:39:14.803Z,48.11
2019-02-19T08:41:44.054Z,46.28
2019-02-19T08:44:14.158Z,44.42
2019-02-19T08:46:45.390Z,44.99
2019-02-19T08:49:16.914Z,42.96
2019-02-19T08:51:55.834Z,44.33
2019-02-19T08:54:23.478Z,45.47
2019-02-19T08:56:54.917Z,46.56
2019-02-19T09:02:52.478Z,49.19
2019-02-19T09:05:21.703Z,48.36
2019-02-19T09:07:52.817Z,50.10
2019-02-19T09:10:22.354Z,48.99
2019-02-19T09:12:54.187Z,48.07
2019-02-19T09:15:23.425Z,48.26
2019-02-19T09:17:52.686Z,47.33
2019-02-19T09:20:23.806Z,46.39
2019-02-19T09:22:53.089Z,46.02
2019-02-19T09:25:24.076Z,44.87
2019-02-19T09:27:53.858Z,44.09
2019-02-19T09:30:23.621Z,45.18
2019-02-19T09:32:55.095Z,46.16
2019-02-19T09:35:28.870Z,45.36
2019-02-19T09:37:58.134Z,42.63
2019-02-19T09:40:27.374Z,38.90
2019-02-19T09:42:58.299Z,39.46
2019-02-19T09:45:29.577Z,38.28
2019-02-19T09:48:01.274Z,40.37
2019-02-19T09:50:31.260Z,40.48
2019-02-19T09:53:04.234Z,40.38
2019-02-19T09:55:33.508Z,38.24
2019-02-19T09:58:05.795Z,38.80
2019-02-19T10:00:38.265Z,38.27
2019-02-19T10:03:08.279Z,38.46
2019-02-19T10:05:37.544Z,38.13
2019-02-19T10:08:06.783Z,37.38
2019-02-19T10:10:36.043Z,38.24
2019-02-19T10:13:08.679Z,39.90
2019-02-19T10:15:38.350Z,40.06
2019-02-19T10:18:10.481Z,40.43
2019-02-19T10:20:40.305Z,41.14
2019-02-19T10:23:14.705Z,42.62
2019-02-19T10:25:44.778Z,41.92
2019-02-19T10:28:16.945Z,43.43
2019-02-19T10:30:48.578Z,43.79
2019-02-19T10:33:17.798Z,42.62
2019-02-19T10:35:49.987Z,42.06
2019-02-19T10:38:30.003Z,42.82
2019-02-19T10:41:02.912Z,42.30
2019-02-19T10:43:35.701Z,44.00
2019-02-19T10:46:07.503Z,43.64
2019-02-19T10:48:38.303Z,42.57
2019-02-19T10:51:07.863Z,43.08
2019-02-19T10:53:37.101Z,42.05
2019-02-19T10:56:07.988Z,42.24
2019-02-19T10:58:40.128Z,42.55
2019-02-19T11:01:11.718Z,42.38
2019-02-19T11:03:41.280Z,43.46
2019-02-19T11:06:11.725Z,43.79
2019-02-19T11:08:40.961Z,42.85
2019-02-19T11:11:10.862Z,43.06
2019-02-19T11:13:40.094Z,43.78
2019-02-19T11:19:38.119Z,45.38
2019-02-19T11:22:10.706Z,43.57
2019-02-19T11:24:40.719Z,43.87
2019-02-19T11:34:38.121Z,44.57
2019-02-19T11:37:07.398Z,45.50
2019-02-19T11:39:36.858Z,44.97
2019-02-19T11:42:06.136Z,44.53
2019-02-19T11:44:35.328Z,43.50
2019-02-19T11:47:04.593Z,42.94
2019-02-19T11:49:33.804Z,42.27
2019-02-19T11:52:03.445Z,40.02
2019-02-19T11:54:34.978Z,40.00
2019-02-19T11:57:04.228Z,40.35
2019-02-19T11:59:33.455Z,39.46
2019-02-19T12:02:04.661Z,38.42
2019-02-19T12:04:34.183Z,38.63
2019-02-19T12:07:04.934Z,38.65
2019-02-19T12:09:36.552Z,38.20
2019-02-19T12:12:08.195Z,38.03
2019-02-19T12:14:38.867Z,35.93
2019-02-19T12:17:09.018Z,37.04
2019-02-19T12:19:38.248Z,37.70
2019-02-19T12:22:08.535Z,38.63
2019-02-19T12:24:37.795Z,39.72
2019-02-19T12:27:08.922Z,41.32
2019-02-19T12:29:40.981Z,43.39
2019-02-19T12:32:10.529Z,44.87
2019-02-19T12:34:40.855Z,43.29
2019-02-19T12:37:11.258Z,43.78
2019-02-19T12:39:42.521Z,43.28
2019-02-19T12:42:11.738Z,42.98
2019-02-19T12:44:40.987Z,44.26
2019-02-19T12:47:14.174Z,45.42
2019-02-19T12:49:43.724Z,45.38
2019-02-19T12:52:14.569Z,47.99
2019-02-19T12:54:43.818Z,48.12
2019-02-19T12:57:14.688Z,48.32
2019-02-19T12:59:43.996Z,48.50
2019-02-19T13:02:13.235Z,48.80
2019-02-19T13:04:42.484Z,48.00
2019-02-19T13:07:13.145Z,47.69
2019-02-19T13:09:42.452Z,46.94
2019-02-19T13:12:14.484Z,46.75
2019-02-19T13:14:46.017Z,44.51
2019-02-19T13:17:15.226Z,45.22
2019-02-19T13:19:44.472Z,43.21
2019-02-19T13:22:14.705Z,42.81
2019-02-19T13:24:43.952Z,43.62
2019-02-19T13:27:15.182Z,45.24
2019-02-19T13:29:44.467Z,45.65
2019-02-19T13:32:13.683Z,45.62
2019-02-19T13:34:44.071Z,45.82
2019-02-19T13:37:13.275Z,45.17
2019-02-19T13:39:42.547Z,42.73
2019-02-19T13:42:12.919Z,43.69
2019-02-19T13:44:43.777Z,45.03
2019-02-19T13:47:12.990Z,44.99
2019-02-19T13:49:42.637Z,46.50
2019-02-19T13:52:22.735Z,46.19
2019-02-19T13:54:56.759Z,46.60
2019-02-19T13:57:26.016Z,47.04
2019-02-19T13:59:55.324Z,48.46
2019-02-19T14:02:25.616Z,49.25
2019-02-19T14:04:54.867Z,50.09
2019-02-19T14:07:25.588Z,50.68
2019-02-19T14:09:54.849Z,51.59
2019-02-19T14:12:24.401Z,51.94
2019-02-19T14:14:58.481Z,51.72
2019-02-19T14:17:28.861Z,51.92
2019-02-19T14:20:17.057Z,53.72
2019-02-19T14:23:10.823Z,53.63
2019-02-19T14:26:01.799Z,55.36
2019-02-19T14:29:03.004Z,55.78
2019-02-19T14:32:06.290Z,55.07
2019-02-19T14:34:55.684Z,55.02
2019-02-19T14:37:47.865Z,56.45
2019-02-19T14:40:42.082Z,56.60
2019-02-19T14:43:21.499Z,57.28
2019-02-19T14:46:13.383Z,56.43
2019-02-19T14:48:57.280Z,56.36
2019-02-19T14:51:46.298Z,56.85
2019-02-19T14:54:33.058Z,56.52
2019-02-19T14:57:18.752Z,56.80
2019-02-19T15:00:06.967Z,56.08
2019-02-19T15:02:57.697Z,57.16
2019-02-19T15:05:47.989Z,57.40
2019-02-19T15:08:40.454Z,57.06
2019-02-19T15:11:34.402Z,57.80
2019-02-19T15:14:34.870Z,57.35
2019-02-19T15:17:23.062Z,56.12
2019-02-19T15:20:11.241Z,56.39
2019-02-19T15:22:58.072Z,57.25
2019-02-19T15:25:44.986Z,56.46
2019-02-19T15:28:45.895Z,56.71
2019-02-19T15:31:36.758Z,56.93
2019-02-19T15:34:24.970Z,56.80
2019-02-19T15:37:15.951Z,56.80
2019-02-19T15:40:10.150Z,56.91
2019-02-19T15:42:53.947Z,56.37
2019-02-19T15:45:32.777Z,56.12
2019-02-19T15:48:10.803Z,55.65
2019-02-19T15:50:57.750Z,55.23
2019-02-19T15:54:04.098Z,54.78
2019-02-19T15:56:52.107Z,54.71
2019-02-19T15:59:39.783Z,54.54
2019-02-19T16:02:33.767Z,54.70
2019-02-19T16:05:37.554Z,55.08
2019-02-19T16:08:25.763Z,55.52
2019-02-19T16:11:05.443Z,56.23
2019-02-19T16:13:45.984Z,56.42
2019-02-19T16:16:31.914Z,56.42
2019-02-19T16:19:23.148Z,56.59
2019-02-19T16:22:14.448Z,56.74
2019-02-19T16:25:19.364Z,56.63
2019-02-19T16:28:07.817Z,56.93
2019-02-19T16:31:14.077Z,57.34
2019-02-19T16:33:50.952Z,57.26
2019-02-19T16:36:32.810Z,57.23
2019-02-19T16:39:19.656Z,57.23
